createdAt,value
2022-11-06T00:01:08.260Z,79.39
2022-11-06T00:06:29.791Z,79.21
2022-11-06T00:11:32.464Z,79.04
2022-11-06T00:16:38.073Z,79.41
2022-11-06T00:21:42.997Z,79.19
2022-11-06T00:26:49.853Z,79.66
2022-11-06T00:31:57.028Z,79.38
2022-11-06T00:36:59.636Z,79.37
2022-11-06T00:42:02.405Z,79.36
2022-11-06T00:47:06.398Z,79.71
2022-11-06T00:52:09.006Z,80.03
2022-11-06T00:57:11.685Z,79.89
2022-11-06T01:02:17.278Z,79.85
2022-11-06T01:07:19.996Z,79.53
2022-11-06T01:12:22.639Z,79.86
2022-11-06T01:17:26.536Z,79.74
2022-11-06T01:22:29.133Z,80.11
2022-11-06T01:27:31.802Z,80.03
2022-11-06T01:32:36.500Z,80.22
2022-11-06T01:37:39.075Z,80.24
2022-11-06T01:42:41.744Z,80.26
2022-11-06T01:47:46.248Z,80.23
2022-11-06T01:52:50.083Z,80.25
2022-11-06T01:57:52.995Z,80.18
2022-11-06T02:02:57.141Z,80.55
2022-11-06T02:08:01.173Z,80.29
2022-11-06T02:13:24.812Z,80.45
2022-11-06T02:18:57.137Z,80.60
2022-11-06T02:24:24.709Z,80.59
2022-11-06T02:29:33.348Z,80.65
2022-11-06T02:34:37.483Z,80.34
2022-11-06T02:39:41.852Z,80.61
2022-11-06T02:44:49.300Z,80.73
2022-11-06T02:49:55.345Z,80.43
2022-11-06T02:55:06.059Z,80.69
2022-11-06T03:00:12.543Z,80.56
2022-11-06T03:05:18.543Z,80.63
2022-11-06T03:10:21.705Z,80.37
2022-11-06T03:15:31.809Z,80.35
2022-11-06T03:20:38.349Z,80.05
2022-11-06T03:25:45.739Z,80.08
2022-11-06T03:30:51.500Z,80.36
2022-11-06T03:35:58.088Z,80.40
2022-11-06T03:41:03.752Z,80.55
2022-11-06T03:46:12.804Z,80.70
2022-11-06T03:51:19.378Z,80.37
2022-11-06T03:56:25.096Z,80.55
2022-11-06T04:01:32.831Z,80.81
2022-11-06T04:06:38.832Z,80.72
2022-11-06T04:12:02.266Z,80.78
2022-11-06T04:17:08.613Z,80.73
2022-11-06T04:22:23.491Z,80.80
2022-11-06T04:27:34.788Z,81.02
2022-11-06T04:33:00.121Z,80.76
2022-11-06T04:38:05.734Z,80.54
2022-11-06T04:43:12.785Z,80.88
2022-11-06T04:48:17.318Z,80.92
2022-11-06T04:53:21.137Z,81.21
2022-11-06T04:58:23.746Z,80.88
2022-11-06T05:03:27.739Z,80.99
2022-11-06T05:08:30.484Z,80.99
2022-11-06T05:13:33.115Z,80.87
2022-11-06T05:18:37.328Z,80.79
2022-11-06T05:23:40.149Z,81.11
2022-11-06T05:28:42.867Z,81.07
2022-11-06T05:33:46.777Z,80.82
2022-11-06T05:38:49.491Z,81.01
2022-11-06T05:43:52.487Z,80.87
2022-11-06T05:48:56.424Z,81.08
2022-11-06T05:53:59.001Z,81.11
2022-11-06T05:59:01.579Z,80.85
2022-11-06T06:04:05.791Z,81.10
2022-11-06T06:09:08.370Z,81.06
2022-11-06T06:14:11.035Z,81.17
2022-11-06T06:19:15.324Z,81.15
2022-11-06T06:24:18.208Z,80.98
2022-11-06T06:29:20.863Z,81.03
2022-11-06T06:34:24.790Z,80.76
2022-11-06T06:39:27.409Z,80.60
2022-11-06T06:44:30.175Z,80.13
2022-11-06T06:49:35.701Z,80.55
2022-11-06T06:54:38.645Z,80.41
2022-11-06T06:59:41.240Z,80.31
2022-11-06T07:04:45.230Z,80.58
2022-11-06T07:09:47.793Z,80.30
2022-11-06T07:14:50.574Z,80.26
2022-11-06T07:19:54.630Z,80.03
2022-11-06T07:24:57.291Z,80.04
2022-11-06T07:30:00.446Z,80.03
2022-11-06T07:35:04.690Z,79.62
2022-11-06T07:40:09.672Z,79.86
2022-11-06T07:45:13.382Z,79.89
2022-11-06T07:50:17.348Z,79.79
2022-11-06T07:55:20.174Z,79.31
2022-11-06T08:00:22.750Z,79.36
2022-11-06T08:05:26.724Z,79.12
2022-11-06T08:10:29.454Z,78.79
2022-11-06T08:15:32.293Z,78.58
2022-11-06T08:20:36.449Z,78.52
2022-11-06T08:25:39.190Z,78.72
2022-11-06T08:30:41.770Z,78.83
2022-11-06T08:35:45.715Z,78.53
2022-11-06T08:40:53.460Z,78.68
2022-11-06T08:45:56.612Z,78.02
2022-11-06T08:51:00.639Z,77.90
2022-11-06T08:56:04.149Z,77.52
2022-11-06T09:01:07.006Z,77.74
2022-11-06T09:06:11.047Z,77.75
2022-11-06T09:11:13.724Z,77.61
2022-11-06T09:16:17.456Z,77.40
2022-11-06T09:21:21.443Z,77.69
2022-11-06T09:26:24.054Z,77.28
2022-11-06T09:31:26.778Z,76.71
2022-11-06T09:36:30.747Z,76.85
2022-11-06T09:41:42.437Z,76.66
2022-11-06T09:46:46.692Z,76.39
2022-11-06T09:51:53.756Z,75.90
2022-11-06T09:57:02.346Z,75.85
2022-11-06T10:02:19.151Z,75.47
2022-11-06T10:07:31.496Z,75.22
2022-11-06T10:12:43.295Z,74.70
2022-11-06T10:17:55.068Z,74.38
2022-11-06T10:23:04.854Z,73.98
2022-11-06T10:28:17.110Z,73.49
2022-11-06T10:33:37.845Z,73.07
2022-11-06T10:38:44.210Z,72.62
2022-11-06T10:43:50.539Z,72.03
2022-11-06T10:48:58.151Z,71.55
2022-11-06T10:54:10.209Z,71.32
2022-11-06T10:59:13.094Z,70.95
2022-11-06T11:04:15.676Z,70.36
2022-11-06T11:09:37.340Z,69.82
2022-11-06T11:14:40.009Z,68.97
2022-11-06T11:19:44.015Z,67.94
2022-11-06T11:25:00.929Z,65.79
2022-11-06T11:30:05.735Z,65.02
2022-11-06T11:35:12.650Z,64.60
2022-11-06T11:40:36.071Z,64.09
2022-11-06T11:45:38.905Z,63.96
2022-11-06T11:50:41.499Z,64.05
2022-11-06T11:55:46.482Z,62.79
2022-11-06T12:00:55.685Z,61.91
2022-11-06T12:06:06.971Z,61.58
2022-11-06T12:11:17.391Z,62.04
2022-11-06T12:16:21.343Z,61.65
2022-11-06T12:21:26.283Z,61.53
2022-11-06T12:26:33.847Z,61.02
2022-11-06T12:31:40.111Z,60.59
2022-11-06T12:36:46.872Z,60.24
2022-11-06T12:41:51.284Z,60.35
2022-11-06T12:46:58.973Z,60.35
2022-11-06T12:52:10.677Z,59.71
2022-11-06T12:57:22.990Z,60.28
2022-11-06T13:02:36.381Z,60.24
2022-11-06T13:07:52.263Z,60.33
2022-11-06T13:13:10.304Z,60.72
2022-11-06T13:18:21.747Z,61.79
2022-11-06T13:23:27.921Z,62.29
2022-11-06T13:28:34.956Z,62.85
2022-11-06T13:33:39.886Z,63.55
2022-11-06T13:38:46.836Z,63.86
2022-11-06T13:43:54.147Z,64.23
2022-11-06T13:49:08.726Z,64.61
2022-11-06T13:54:18.959Z,64.90
2022-11-06T13:59:59.987Z,65.20
2022-11-06T14:05:38.395Z,65.26
2022-11-06T14:10:50.037Z,65.25
2022-11-06T14:16:00.339Z,65.17
2022-11-06T14:21:42.630Z,65.34
2022-11-06T14:26:46.750Z,65.39
2022-11-06T14:32:02.395Z,65.49
2022-11-06T14:37:38.592Z,65.46
2022-11-06T14:42:43.192Z,65.26
2022-11-06T14:47:54.793Z,65.58
2022-11-06T14:52:59.647Z,65.50
2022-11-06T14:58:14.633Z,65.50
2022-11-06T15:03:24.132Z,65.63
2022-11-06T15:09:09.663Z,65.99
2022-11-06T15:14:49.575Z,66.19
2022-11-06T15:20:00.387Z,66.60
2022-11-06T15:25:07.827Z,66.65
2022-11-06T15:30:15.919Z,66.68
2022-11-06T15:35:22.108Z,67.07
2022-11-06T15:40:29.807Z,67.62
2022-11-06T15:45:32.787Z,67.54
2022-11-06T15:50:38.030Z,68.00
2022-11-06T15:55:45.099Z,68.01
2022-11-06T16:00:47.682Z,68.13
2022-11-06T16:05:52.348Z,68.36
2022-11-06T16:10:55.757Z,68.59
2022-11-06T16:16:00.429Z,68.51
2022-11-06T16:21:16.574Z,68.90
2022-11-06T16:26:23.952Z,68.97
2022-11-06T16:31:28.955Z,68.95
2022-11-06T16:36:53.317Z,69.05
2022-11-06T16:42:03.312Z,69.44
2022-11-06T16:47:18.080Z,69.32
2022-11-06T16:52:25.690Z,69.73
2022-11-06T16:57:30.118Z,69.54
2022-11-06T17:02:34.429Z,69.93
2022-11-06T17:07:39.803Z,69.77
2022-11-06T17:12:42.485Z,70.20
2022-11-06T17:17:45.185Z,70.57
2022-11-06T17:22:50.781Z,70.62
2022-11-06T17:27:54.020Z,70.64
2022-11-06T17:32:56.625Z,70.95
2022-11-06T17:38:06.100Z,70.57
2022-11-06T17:43:10.504Z,71.00
2022-11-06T17:48:13.472Z,71.13
2022-11-06T17:53:17.421Z,70.97
2022-11-06T17:58:20.132Z,70.98
2022-11-06T18:03:23.615Z,70.94
2022-11-06T18:08:29.681Z,70.64
2022-11-06T18:13:32.549Z,71.13
2022-11-06T18:18:35.157Z,70.75
2022-11-06T18:23:39.315Z,70.89
2022-11-06T18:28:41.995Z,71.00
2022-11-06T18:33:44.601Z,70.71
2022-11-06T18:38:48.589Z,71.03
2022-11-06T18:43:56.605Z,71.01
2022-11-06T18:48:59.745Z,70.96
2022-11-06T18:54:05.600Z,71.20
2022-11-06T18:59:09.931Z,71.40
2022-11-06T19:04:12.779Z,71.49
2022-11-06T19:09:16.835Z,71.04
2022-11-06T19:14:19.512Z,71.24
2022-11-06T19:19:25.473Z,71.31
2022-11-06T19:24:30.142Z,71.41
2022-11-06T19:29:32.845Z,71.11
2022-11-06T19:34:39.221Z,71.19
2022-11-06T19:39:43.507Z,71.55
2022-11-06T19:44:46.193Z,71.71
2022-11-06T19:49:48.782Z,71.85
2022-11-06T19:55:25.815Z,71.85
2022-11-06T20:00:16.274Z,71.95
2022-11-06T20:05:19.068Z,71.94
2022-11-06T20:10:23.289Z,72.07
2022-11-06T20:15:26.141Z,72.30
2022-11-06T20:20:34.816Z,72.03
2022-11-06T20:25:42.456Z,72.19
2022-11-06T20:30:45.079Z,71.93
2022-11-06T20:35:48.015Z,72.00
2022-11-06T20:40:55.447Z,72.15
2022-11-06T20:46:00.276Z,72.26
2022-11-06T20:51:05.333Z,72.40
2022-11-06T20:56:11.896Z,72.36
2022-11-06T21:01:17.944Z,72.20
2022-11-06T21:06:24.302Z,72.66
2022-11-06T21:11:28.660Z,72.58
2022-11-06T21:16:32.806Z,72.57
2022-11-06T21:21:37.054Z,72.75
2022-11-06T21:26:41.247Z,73.36
2022-11-06T21:31:49.073Z,73.06
2022-11-06T21:36:52.144Z,73.04
2022-11-06T21:41:56.287Z,73.02
2022-11-06T21:46:58.836Z,73.22
2022-11-06T21:52:26.505Z,73.33
2022-11-06T21:57:33.098Z,73.09
2022-11-06T22:02:35.770Z,73.30
2022-11-06T22:07:38.470Z,73.38
2022-11-06T22:12:42.424Z,73.53
2022-11-06T22:17:45.380Z,73.62
2022-11-06T22:22:47.966Z,73.63
2022-11-06T22:27:52.050Z,73.79
2022-11-06T22:32:54.726Z,73.72
2022-11-06T22:37:59.622Z,74.18
2022-11-06T22:43:03.684Z,73.56
2022-11-06T22:48:06.651Z,73.65
2022-11-06T22:53:14.660Z,73.69
2022-11-06T22:58:19.055Z,73.43
2022-11-06T23:03:22.369Z,73.46
2022-11-06T23:08:25.028Z,73.05
2022-11-06T23:13:29.161Z,73.39
2022-11-06T23:18:31.851Z,73.48
2022-11-06T23:23:34.419Z,73.26
2022-11-06T23:28:38.392Z,73.32
2022-11-06T23:33:41.086Z,73.64
2022-11-06T23:38:44.790Z,73.44
2022-11-06T23:43:51.956Z,73.30
2022-11-06T23:48:54.702Z,73.52
2022-11-06T23:53:57.303Z,73.34
2022-11-06T23:59:01.229Z,73.33
